createdAt,value
2022-09-07T00:12:02.356Z,59.89
2022-09-07T00:21:10.919Z,61.28
2022-09-07T00:27:09.734Z,58.60
2022-09-07T00:38:30.347Z,60.49
2022-09-07T00:40:43.612Z,60.64
2022-09-07T00:45:23.329Z,61.83
2022-09-07T00:47:40.944Z,61.94
2022-09-07T00:52:57.213Z,62.88
2022-09-07T00:58:53.248Z,62.75
2022-09-07T01:01:00.523Z,62.74
2022-09-07T01:08:38.689Z,63.58
2022-09-07T01:10:44.688Z,61.80
2022-09-07T01:12:54.730Z,61.62
2022-09-07T01:18:35.209Z,64.58
2022-09-07T01:21:14.327Z,66.16
2022-09-07T01:23:59.764Z,65.78
2022-09-07T01:26:41.621Z,65.04
2022-09-07T01:28:55.232Z,64.15
2022-09-07T01:31:22.612Z,64.77
2022-09-07T01:33:42.458Z,64.85
2022-09-07T01:38:19.424Z,64.77
2022-09-07T01:40:40.979Z,65.01
2022-09-07T01:43:02.454Z,64.14
2022-09-07T01:45:15.662Z,64.06
2022-09-07T01:47:58.001Z,65.28
2022-09-07T01:53:04.293Z,65.26
2022-09-07T01:55:32.701Z,65.43
2022-09-07T01:57:45.726Z,65.79
2022-09-07T02:00:17.801Z,64.92
2022-09-07T02:05:11.994Z,65.03
2022-09-07T02:07:23.575Z,63.56
2022-09-07T02:09:54.420Z,64.70
2022-09-07T02:12:01.279Z,62.72
2022-09-07T02:14:26.374Z,65.75
2022-09-07T02:16:36.210Z,63.45
2022-09-07T02:21:08.802Z,64.50
2022-09-07T02:23:37.890Z,64.95
2022-09-07T02:25:48.807Z,65.08
2022-09-07T02:28:14.178Z,65.25
2022-09-07T02:30:30.111Z,65.23
2022-09-07T02:32:36.804Z,64.30
2022-09-07T02:34:40.730Z,64.47
2022-09-07T02:36:50.741Z,65.18
2022-09-07T02:41:49.568Z,65.28
2022-09-07T02:43:52.581Z,64.97
2022-09-07T02:46:26.559Z,66.04
2022-09-07T02:49:05.677Z,65.89
2022-09-07T02:51:38.161Z,65.19
2022-09-07T02:54:35.497Z,66.33
2022-09-07T02:57:18.966Z,66.43
2022-09-07T03:00:02.459Z,66.74
2022-09-07T03:02:11.044Z,65.55
2022-09-07T03:04:29.389Z,65.84
2022-09-07T03:07:01.913Z,66.06
2022-09-07T03:09:08.217Z,65.40
2022-09-07T03:11:13.114Z,67.31
2022-09-07T03:13:26.573Z,66.44
2022-09-07T03:15:30.752Z,64.28
2022-09-07T03:17:36.988Z,65.03
2022-09-07T03:19:42.759Z,65.16
2022-09-07T04:07:25.927Z,66.10
2022-09-07T04:09:27.972Z,66.43
2022-09-07T04:11:29.983Z,68.16
2022-09-07T04:13:32.367Z,67.14
2022-09-07T04:15:34.447Z,69.59
2022-09-07T04:17:36.493Z,66.67
2022-09-07T04:19:38.500Z,67.97
2022-09-07T04:21:41.770Z,68.38
2022-09-07T04:23:43.940Z,68.27
2022-09-07T04:25:52.324Z,68.74
2022-09-07T04:27:56.029Z,67.67
2022-09-07T04:29:58.028Z,67.05
2022-09-07T04:32:00.045Z,67.55
2022-09-07T04:34:02.306Z,67.75
2022-09-07T04:36:04.846Z,67.47
2022-09-07T04:38:07.148Z,67.26
2022-09-07T04:40:09.876Z,67.49
2022-09-07T04:42:11.912Z,70.21
2022-09-07T04:44:16.976Z,68.51
2022-09-07T04:46:30.302Z,69.62
2022-09-07T04:48:32.266Z,70.78
2022-09-07T04:50:34.327Z,68.12
2022-09-07T04:52:36.385Z,69.05
2022-09-07T04:54:38.705Z,68.48
2022-09-07T04:56:40.723Z,68.96
2022-09-07T04:58:42.715Z,69.92
2022-09-07T05:00:44.705Z,68.88
2022-09-07T05:02:46.753Z,68.09
2022-09-07T05:04:48.845Z,67.78
2022-09-07T05:06:50.945Z,68.80
2022-09-07T05:08:53.866Z,69.44
2022-09-07T05:10:56.797Z,69.03
2022-09-07T05:12:58.839Z,68.00
2022-09-07T05:15:01.693Z,68.29
2022-09-07T05:17:04.616Z,68.97
2022-09-07T05:19:06.609Z,68.33
2022-09-07T05:21:16.980Z,69.31
2022-09-07T05:23:19.060Z,68.92
2022-09-07T05:25:21.074Z,68.83
2022-09-07T05:27:23.073Z,67.24
2022-09-07T05:31:48.316Z,68.00
2022-09-07T05:36:16.671Z,68.15
2022-09-07T05:38:18.671Z,67.39
2022-09-07T05:40:22.310Z,66.57
2022-09-07T05:42:24.380Z,66.69
2022-09-07T05:46:44.161Z,66.82
2022-09-07T05:48:46.211Z,67.03
2022-09-07T05:50:52.717Z,67.54
2022-09-07T05:52:54.750Z,66.62
2022-09-07T05:55:13.059Z,66.43
2022-09-07T05:57:18.747Z,67.68
2022-09-07T05:59:20.711Z,66.98
2022-09-07T06:01:22.733Z,66.84
2022-09-07T06:03:25.097Z,65.87
2022-09-07T06:05:27.226Z,66.32
2022-09-07T06:07:29.271Z,65.98
2022-09-07T06:09:31.521Z,65.81
2022-09-07T06:11:33.512Z,65.56
2022-09-07T06:13:35.733Z,65.68
2022-09-07T06:15:37.804Z,66.67
2022-09-07T06:17:39.979Z,66.15
2022-09-07T06:19:41.982Z,65.58
2022-09-07T06:21:44.020Z,65.92
2022-09-07T06:23:46.521Z,65.18
2022-09-07T06:25:49.859Z,65.37
2022-09-07T06:27:53.975Z,65.07
2022-09-07T06:29:56.030Z,65.26
2022-09-07T06:34:20.072Z,64.53
2022-09-07T06:36:23.918Z,63.98
2022-09-07T06:38:31.843Z,64.30
2022-09-07T06:40:34.837Z,64.28
2022-09-07T06:42:36.841Z,64.28
2022-09-07T06:44:38.968Z,63.56
2022-09-07T06:49:02.940Z,63.07
2022-09-07T06:51:07.901Z,63.32
2022-09-07T06:55:32.441Z,62.51
2022-09-07T06:57:34.511Z,62.26
2022-09-07T06:59:36.744Z,62.04
2022-09-07T07:01:38.793Z,62.25
2022-09-07T07:03:41.280Z,62.07
2022-09-07T07:05:50.898Z,62.14
2022-09-07T07:07:52.988Z,61.69
2022-09-07T07:09:55.216Z,61.38
2022-09-07T07:11:57.220Z,60.71
2022-09-07T07:14:00.053Z,60.67
2022-09-07T07:16:10.037Z,60.49
2022-09-07T07:18:20.776Z,59.64
2022-09-07T07:20:32.980Z,59.40
2022-09-07T07:22:50.454Z,59.12
2022-09-07T07:24:52.477Z,58.88
2022-09-07T07:26:54.477Z,58.81
2022-09-07T07:31:07.194Z,57.78
2022-09-07T07:33:11.548Z,57.45
2022-09-07T07:35:14.260Z,57.21
2022-09-07T07:37:16.301Z,57.28
2022-09-07T07:41:57.658Z,55.94
2022-09-07T07:44:03.259Z,56.38
2022-09-07T07:46:06.342Z,56.32
2022-09-07T07:48:09.143Z,55.61
2022-09-07T07:55:00.971Z,54.67
2022-09-07T07:57:04.234Z,54.38
2022-09-07T07:59:06.430Z,54.38
2022-09-07T08:01:12.473Z,53.91
2022-09-07T08:03:14.481Z,53.84
2022-09-07T08:05:17.222Z,53.31
2022-09-07T08:07:19.579Z,51.62
2022-09-07T08:09:21.581Z,52.02
2022-09-07T08:11:23.654Z,51.76
2022-09-07T08:13:26.213Z,52.12
2022-09-07T08:15:28.190Z,50.62
2022-09-07T08:17:30.139Z,51.59
2022-09-07T08:19:32.108Z,51.51
2022-09-07T08:21:34.062Z,49.90
2022-09-07T08:23:37.290Z,49.66
2022-09-07T08:25:39.308Z,49.24
2022-09-07T08:27:41.285Z,49.60
2022-09-07T08:29:43.268Z,47.59
2022-09-07T08:31:45.531Z,47.54
2022-09-07T08:33:47.516Z,46.91
2022-09-07T08:36:01.264Z,43.69
2022-09-07T08:38:03.216Z,44.39
2022-09-07T08:40:05.738Z,42.71
2022-09-07T08:42:15.396Z,43.06
2022-09-07T08:44:47.631Z,40.26
2022-09-07T08:46:55.112Z,41.03
2022-09-07T08:48:57.309Z,38.44
2022-09-07T08:51:10.275Z,37.19
2022-09-07T08:53:19.593Z,36.91
2022-09-07T08:55:21.485Z,39.57
2022-09-07T08:57:27.402Z,38.09
2022-09-07T08:59:59.919Z,37.13
2022-09-07T09:04:29.439Z,36.14
2022-09-07T09:07:20.983Z,34.90
2022-09-07T09:10:01.077Z,34.80
2022-09-07T09:12:27.593Z,35.15
2022-09-07T09:15:00.191Z,34.72
2022-09-07T09:17:10.887Z,34.46
2022-09-07T09:19:32.087Z,32.91
2022-09-07T09:21:35.613Z,34.58
2022-09-07T09:23:41.589Z,34.04
2022-09-07T09:26:04.838Z,32.37
2022-09-07T09:28:11.126Z,32.77
2022-09-07T09:30:19.609Z,32.45
2022-09-07T09:32:52.892Z,31.56
2022-09-07T09:35:15.369Z,31.47
2022-09-07T09:37:17.424Z,32.71
2022-09-07T09:39:33.955Z,30.77
2022-09-07T09:41:36.930Z,31.45
2022-09-07T09:43:56.603Z,29.86
2022-09-07T09:46:13.895Z,32.57
2022-09-07T09:48:40.457Z,27.80
2022-09-07T09:53:34.851Z,27.05
2022-09-07T09:55:37.414Z,28.91
2022-09-07T10:00:29.323Z,27.02
2022-09-07T10:04:55.205Z,26.30
2022-09-07T10:07:20.708Z,24.92
2022-09-07T10:09:25.970Z,26.31
2022-09-07T10:14:19.292Z,24.24
2022-09-07T10:16:21.546Z,25.57
2022-09-07T10:18:36.041Z,23.66
2022-09-07T10:20:38.216Z,24.33
2022-09-07T10:22:40.883Z,23.75
2022-09-07T10:24:42.820Z,24.45
2022-09-07T10:26:44.905Z,23.97
2022-09-07T10:31:26.378Z,21.37
2022-09-07T10:36:37.572Z,21.39
2022-09-07T10:38:46.152Z,21.27
2022-09-07T10:41:04.293Z,21.02
2022-09-07T10:43:31.895Z,21.47
2022-09-07T10:45:58.297Z,20.47
2022-09-07T10:48:35.608Z,20.46
2022-09-07T10:51:05.039Z,19.82
2022-09-07T10:53:46.630Z,19.53
2022-09-07T10:56:26.913Z,19.61
2022-09-07T10:59:18.925Z,19.43
2022-09-07T11:01:33.428Z,18.98
2022-09-07T11:04:29.560Z,18.62
2022-09-07T11:06:41.723Z,18.38
2022-09-07T11:09:17.033Z,17.53
2022-09-07T11:14:13.619Z,17.88
2022-09-07T11:24:11.282Z,17.71
2022-09-07T11:26:25.110Z,17.43
2022-09-07T11:28:45.885Z,16.97
2022-09-07T11:31:00.231Z,16.59
2022-09-07T11:33:35.514Z,16.65
2022-09-07T11:35:43.902Z,17.49
2022-09-07T11:37:49.576Z,16.70
2022-09-07T11:40:36.510Z,16.95
2022-09-07T11:43:22.813Z,16.12
2022-09-07T11:46:21.858Z,15.29
2022-09-07T11:48:31.187Z,15.83
2022-09-07T11:50:36.120Z,15.78
2022-09-07T11:52:40.611Z,17.01
2022-09-07T11:54:53.563Z,16.13
2022-09-07T11:57:15.481Z,15.53
2022-09-07T11:59:20.040Z,16.97
2022-09-07T12:01:56.627Z,16.33
2022-09-07T12:04:51.714Z,17.49
2022-09-07T12:07:33.415Z,17.91
2022-09-07T12:09:44.122Z,17.71
2022-09-07T12:12:08.159Z,17.09
2022-09-07T12:14:30.841Z,17.91
2022-09-07T12:16:59.553Z,17.80
2022-09-07T12:19:22.032Z,18.17
2022-09-07T12:21:30.836Z,18.39
2022-09-07T12:23:33.389Z,18.77
2022-09-07T12:25:35.397Z,18.94
2022-09-07T12:27:38.780Z,18.96
2022-09-07T12:29:45.115Z,18.39
2022-09-07T12:31:58.874Z,18.28
2022-09-07T12:34:38.503Z,18.20
2022-09-07T12:36:41.275Z,18.14
2022-09-07T12:39:30.729Z,17.63
2022-09-07T12:42:32.014Z,17.63
2022-09-07T12:44:19.227Z,17.66
2022-09-07T12:46:43.935Z,17.83
2022-09-07T12:49:08.681Z,18.24
2022-09-07T12:54:06.815Z,18.32
2022-09-07T12:56:38.419Z,17.82
2022-09-07T12:58:59.345Z,18.12
2022-09-07T13:01:35.464Z,18.07
2022-09-07T13:04:12.680Z,17.29
2022-09-07T13:09:16.697Z,16.73
2022-09-07T13:11:21.523Z,16.67
2022-09-07T13:16:15.525Z,17.08
2022-09-07T13:18:29.180Z,16.81
2022-09-07T13:20:36.129Z,16.34
2022-09-07T13:22:39.555Z,16.52
2022-09-07T13:24:56.338Z,15.99
2022-09-07T13:27:11.210Z,15.27
2022-09-07T13:29:13.871Z,15.52
2022-09-07T13:32:07.994Z,15.38
2022-09-07T13:35:01.094Z,15.24
2022-09-07T13:37:12.175Z,15.31
2022-09-07T13:39:16.161Z,15.17
2022-09-07T13:41:32.069Z,15.32
2022-09-07T13:43:34.057Z,15.60
2022-09-07T13:45:55.760Z,14.79
2022-09-07T13:48:25.266Z,14.60
2022-09-07T13:50:36.288Z,14.53
2022-09-07T13:53:15.266Z,14.77
2022-09-07T13:56:12.801Z,14.52
2022-09-07T13:58:35.601Z,14.97
2022-09-07T14:00:37.720Z,14.97
2022-09-07T14:02:39.750Z,15.01
2022-09-07T14:04:43.130Z,15.14
2022-09-07T14:06:45.129Z,15.58
2022-09-07T14:08:49.524Z,14.92
2022-09-07T14:10:51.491Z,15.09
2022-09-07T14:13:08.044Z,15.00
2022-09-07T14:15:22.348Z,14.40
2022-09-07T14:17:24.343Z,15.41
2022-09-07T14:19:39.866Z,14.91
2022-09-07T14:21:41.888Z,14.77
2022-09-07T14:23:43.878Z,14.82
2022-09-07T14:28:31.401Z,15.74
2022-09-07T14:30:33.601Z,15.76
2022-09-07T14:32:36.216Z,16.25
2022-09-07T14:34:38.210Z,16.25
2022-09-07T14:36:45.858Z,16.57
2022-09-07T14:41:18.465Z,16.25
2022-09-07T14:43:37.002Z,16.66
2022-09-07T14:45:39.335Z,16.71
2022-09-07T14:47:41.359Z,16.58
2022-09-07T14:49:43.608Z,16.50
2022-09-07T14:51:48.427Z,16.88
2022-09-07T14:53:51.841Z,16.81
2022-09-07T14:56:02.272Z,16.13
2022-09-07T14:58:16.427Z,16.30
2022-09-07T15:00:32.170Z,16.46
2022-09-07T15:02:36.802Z,16.83
2022-09-07T15:04:38.966Z,16.82
2022-09-07T15:09:07.004Z,17.31
2022-09-07T15:13:35.959Z,16.91
2022-09-07T15:15:39.608Z,17.13
2022-09-07T15:17:43.373Z,17.40
2022-09-07T15:19:45.738Z,17.21
2022-09-07T15:21:47.721Z,17.23
2022-09-07T15:23:54.284Z,17.56
2022-09-07T15:25:56.294Z,17.56
2022-09-07T15:27:58.368Z,17.90
2022-09-07T15:30:00.393Z,18.38
2022-09-07T15:32:04.680Z,18.38
2022-09-07T15:34:18.600Z,18.86
2022-09-07T15:36:20.651Z,18.49
2022-09-07T15:41:20.665Z,19.51
2022-09-07T15:43:23.047Z,19.81
2022-09-07T15:45:25.501Z,19.78
2022-09-07T15:47:47.268Z,20.35
2022-09-07T15:49:51.380Z,20.06
2022-09-07T15:52:08.928Z,20.35
2022-09-07T15:54:13.509Z,20.66
2022-09-07T15:56:17.239Z,20.56
2022-09-07T15:58:21.901Z,20.88
2022-09-07T16:00:23.937Z,21.29
2022-09-07T16:04:48.064Z,21.66
2022-09-07T16:06:50.918Z,22.03
2022-09-07T16:08:53.377Z,22.51
2022-09-07T16:10:56.321Z,22.45
2022-09-07T16:13:11.326Z,22.98
2022-09-07T16:15:18.250Z,22.93
2022-09-07T16:17:34.400Z,23.13
2022-09-07T16:19:41.103Z,23.48
2022-09-07T16:21:43.274Z,23.43
2022-09-07T16:23:48.855Z,24.24
2022-09-07T16:25:58.407Z,24.67
2022-09-07T16:28:00.435Z,24.34
2022-09-07T16:30:02.437Z,24.42
2022-09-07T16:34:26.389Z,25.26
2022-09-07T16:36:28.461Z,25.27
2022-09-07T16:38:47.599Z,25.96
2022-09-07T16:40:50.128Z,26.29
2022-09-07T16:42:52.224Z,26.49
2022-09-07T16:44:54.793Z,26.21
2022-09-07T16:46:56.762Z,27.70
2022-09-07T16:48:58.726Z,26.12
2022-09-07T16:51:02.637Z,26.43
2022-09-07T16:53:04.828Z,26.62
2022-09-07T16:55:07.126Z,26.97
2022-09-07T16:57:09.127Z,26.89
2022-09-07T16:59:13.819Z,27.37
2022-09-07T17:01:18.155Z,27.91
2022-09-07T17:03:20.286Z,27.78
2022-09-07T17:05:22.334Z,27.95
2022-09-07T17:07:24.358Z,28.31
2022-09-07T17:09:28.649Z,28.04
2022-09-07T17:11:33.002Z,28.38
2022-09-07T17:13:36.151Z,28.22
2022-09-07T17:15:38.129Z,28.76
2022-09-07T17:17:40.098Z,28.66
2022-09-07T17:19:42.398Z,28.56
2022-09-07T17:21:46.188Z,29.17
2022-09-07T17:23:54.929Z,28.55
2022-09-07T17:26:14.179Z,30.47
2022-09-07T17:28:16.527Z,29.44
2022-09-07T17:30:20.757Z,30.78
2022-09-07T17:32:25.317Z,30.16
2022-09-07T17:34:28.582Z,30.80
2022-09-07T17:36:30.759Z,30.22
2022-09-07T17:40:55.162Z,30.50
2022-09-07T17:45:19.196Z,30.36
2022-09-07T17:47:21.397Z,30.05
2022-09-07T17:49:24.103Z,30.45
2022-09-07T17:51:28.228Z,30.51
2022-09-07T17:53:30.336Z,30.75
2022-09-07T17:55:32.326Z,31.15
2022-09-07T17:57:34.928Z,30.87
2022-09-07T18:01:58.844Z,31.04
2022-09-07T18:04:00.824Z,32.04
2022-09-07T18:06:03.053Z,31.39
2022-09-07T18:08:05.538Z,31.42
2022-09-07T18:10:07.983Z,32.20
2022-09-07T18:12:09.975Z,32.92
2022-09-07T18:14:13.625Z,32.23
2022-09-07T18:16:17.578Z,32.33
2022-09-07T18:18:20.318Z,32.63
2022-09-07T18:20:24.185Z,34.32
2022-09-07T18:22:26.219Z,32.76
2022-09-07T18:24:28.255Z,33.50
2022-09-07T18:26:30.589Z,33.10
2022-09-07T18:30:54.503Z,34.27
2022-09-07T18:32:58.360Z,33.93
2022-09-07T18:35:01.173Z,33.77
2022-09-07T18:37:03.341Z,34.23
2022-09-07T18:39:05.350Z,33.60
2022-09-07T18:41:12.063Z,34.82
2022-09-07T18:43:14.453Z,33.59
2022-09-07T18:45:33.691Z,33.65
2022-09-07T18:47:35.902Z,35.09
2022-09-07T18:49:38.112Z,34.28
2022-09-07T18:54:02.422Z,34.87
2022-09-07T18:56:06.400Z,34.56
2022-09-07T18:58:08.361Z,34.84
2022-09-07T19:00:11.767Z,35.79
2022-09-07T19:02:14.367Z,35.56
2022-09-07T19:04:16.540Z,36.15
2022-09-07T19:06:18.513Z,35.08
2022-09-07T19:08:20.486Z,36.65
2022-09-07T19:10:23.159Z,36.89
2022-09-07T19:12:25.106Z,37.61
2022-09-07T19:14:27.631Z,36.72
2022-09-07T19:16:29.838Z,36.53
2022-09-07T19:18:32.160Z,36.97
2022-09-07T19:20:34.488Z,36.13
2022-09-07T19:22:36.434Z,36.81
2022-09-07T19:24:38.416Z,36.79
2022-09-07T19:26:43.006Z,37.13
2022-09-07T19:28:52.961Z,38.42
2022-09-07T19:30:55.113Z,37.20
2022-09-07T19:33:00.718Z,38.01
2022-09-07T19:35:05.753Z,37.05
2022-09-07T19:37:10.071Z,38.50
2022-09-07T19:39:12.094Z,38.04
2022-09-07T19:41:17.082Z,37.99
2022-09-07T19:43:19.107Z,39.01
2022-09-07T19:45:21.231Z,38.09
2022-09-07T19:47:24.022Z,38.73
2022-09-07T19:49:25.932Z,40.43
2022-09-07T19:51:27.884Z,38.16
2022-09-07T19:53:34.325Z,39.70
2022-09-07T19:55:36.372Z,38.39
2022-09-07T19:57:38.330Z,40.21
2022-09-07T19:59:40.296Z,39.56
2022-09-07T20:01:47.354Z,39.35
2022-09-07T20:03:58.714Z,40.63
2022-09-07T20:06:08.905Z,40.72
2022-09-07T20:08:10.888Z,39.85
2022-09-07T20:10:12.844Z,40.00
2022-09-07T20:12:14.813Z,38.87
2022-09-07T20:14:17.107Z,40.03
2022-09-07T20:16:19.463Z,39.61
2022-09-07T20:18:22.152Z,40.12
2022-09-07T20:20:24.202Z,39.33
2022-09-07T20:22:26.173Z,39.70
2022-09-07T20:24:28.511Z,39.66
2022-09-07T20:26:32.347Z,39.88
2022-09-07T20:28:34.612Z,40.34
2022-09-07T20:30:42.414Z,41.54
2022-09-07T20:32:44.502Z,39.96
2022-09-07T20:34:46.489Z,40.62
2022-09-07T20:36:51.390Z,40.49
2022-09-07T20:38:55.218Z,40.85
2022-09-07T20:40:59.628Z,40.68
2022-09-07T20:43:01.588Z,40.88
2022-09-07T20:45:03.829Z,40.85
2022-09-07T20:47:05.937Z,41.61
2022-09-07T20:49:07.938Z,40.59
2022-09-07T20:51:12.801Z,40.98
2022-09-07T20:53:14.751Z,40.14
2022-09-07T20:55:16.949Z,40.69
2022-09-07T20:57:18.996Z,41.63
2022-09-07T20:59:21.267Z,40.22
2022-09-07T21:01:23.740Z,40.84
2022-09-07T21:03:25.951Z,40.67
2022-09-07T21:05:28.013Z,40.85
2022-09-07T21:07:30.033Z,41.35
2022-09-07T21:09:32.027Z,41.60
2022-09-07T21:11:35.517Z,41.29
2022-09-07T21:13:37.625Z,41.23
2022-09-07T21:15:44.081Z,42.29
2022-09-07T21:17:46.036Z,40.80
2022-09-07T21:19:47.976Z,41.41
2022-09-07T21:21:49.958Z,41.20
2022-09-07T21:23:59.900Z,42.39
2022-09-07T21:26:02.098Z,41.81
2022-09-07T21:28:04.036Z,41.60
2022-09-07T21:30:06.614Z,41.78
2022-09-07T21:32:08.556Z,41.60
2022-09-07T21:34:10.622Z,42.42
2022-09-07T21:36:13.217Z,41.39
2022-09-07T21:38:15.178Z,41.10
2022-09-07T21:40:17.441Z,41.52
2022-09-07T21:42:19.436Z,42.17
2022-09-07T21:44:21.922Z,41.89
2022-09-07T21:46:24.318Z,42.23
2022-09-07T21:48:26.353Z,41.71
2022-09-07T21:50:28.293Z,42.00
2022-09-07T21:52:30.251Z,41.90
2022-09-07T21:54:32.191Z,41.57
2022-09-07T21:56:34.194Z,41.88
2022-09-07T21:58:36.217Z,42.30
2022-09-07T22:00:38.967Z,42.18
2022-09-07T22:02:40.920Z,43.89
2022-09-07T22:04:42.911Z,42.55
2022-09-07T22:06:44.871Z,43.19
2022-09-07T22:08:46.893Z,43.39
2022-09-07T22:10:48.914Z,42.50
2022-09-07T22:12:50.853Z,42.90
2022-09-07T22:14:52.777Z,42.80
2022-09-07T22:16:54.722Z,42.58
2022-09-07T22:18:56.652Z,42.60
2022-09-07T22:21:13.248Z,44.26
2022-09-07T22:23:15.208Z,43.05
2022-09-07T22:25:17.233Z,43.29
2022-09-07T22:27:19.190Z,43.43
2022-09-07T22:29:21.124Z,43.03
2022-09-07T22:31:28.740Z,43.50
2022-09-07T22:33:30.821Z,43.49
2022-09-07T22:35:32.788Z,43.82
2022-09-07T22:37:34.762Z,43.42
2022-09-07T22:39:37.098Z,42.88
2022-09-07T22:41:39.386Z,42.87
2022-09-07T22:43:41.559Z,43.67
2022-09-07T22:45:43.500Z,43.11
2022-09-07T22:47:45.480Z,43.29
2022-09-07T22:49:47.503Z,43.58
2022-09-07T22:51:49.522Z,43.95
2022-09-07T22:53:51.513Z,43.83
2022-09-07T22:55:53.800Z,44.67
2022-09-07T22:57:55.753Z,44.92
2022-09-07T22:59:57.702Z,43.92
2022-09-07T23:01:59.689Z,44.45
2022-09-07T23:04:02.481Z,44.08
2022-09-07T23:06:04.703Z,45.11
2022-09-07T23:08:06.763Z,44.27
2022-09-07T23:10:09.271Z,45.19
2022-09-07T23:12:11.273Z,44.98
2022-09-07T23:14:19.626Z,46.68
2022-09-07T23:16:21.813Z,45.75
2022-09-07T23:18:24.007Z,45.03
2022-09-07T23:20:25.971Z,45.50
2022-09-07T23:22:27.935Z,45.40
2022-09-07T23:24:29.887Z,45.46
2022-09-07T23:26:32.236Z,45.32
2022-09-07T23:28:34.700Z,45.63
2022-09-07T23:30:36.713Z,45.37
2022-09-07T23:32:38.671Z,46.52
2022-09-07T23:34:40.744Z,46.34
2022-09-07T23:36:42.709Z,46.52
2022-09-07T23:38:45.846Z,46.31
2022-09-07T23:40:47.858Z,46.25
2022-09-07T23:42:49.968Z,46.31
2022-09-07T23:44:51.906Z,46.18
2022-09-07T23:46:53.971Z,47.57
2022-09-07T23:48:56.005Z,47.01
2022-09-07T23:50:57.980Z,47.01
2022-09-07T23:53:00.020Z,46.37
2022-09-07T23:55:02.021Z,47.89
2022-09-07T23:57:04.118Z,48.39
2022-09-07T23:59:06.401Z,48.72
